Terminal Aerodrome Forecast
Issued by NWS

Home | Current Version | Previous Version | Text Only | Print | Product List | Glossary On
Versions: 1 2 3 4 5 6 7 8 9 10 11 12 13 14 15 16 17 18 19 20 21 22 23 24 25
000
FTUS43 KDLH 270100 AAA
TAFBRD
TAF AMD
KBRD 270101Z 2701/2724 34014KT P6SM SCT016 OVC021
     FM270300 33007KT P6SM OVC016
     FM270900 VRB03KT 6SM BR OVC013
     FM271800 17009KT P6SM SCT015 BKN150=

USA.gov is the U.S. government's official web portal to all federal, state and local government web resources and services.